createdAt,value
2023-04-29T00:01:28.746Z,13.40
2023-04-29T00:03:55.544Z,13.60
2023-04-29T00:06:22.504Z,12.70
2023-04-29T00:08:49.191Z,12.73
2023-04-29T00:11:15.582Z,12.60
2023-04-29T00:13:41.838Z,12.37
2023-04-29T00:16:10.128Z,13.03
2023-04-29T00:18:37.547Z,13.20
2023-04-29T00:21:06.023Z,12.53
2023-04-29T00:23:35.314Z,13.30
2023-04-29T00:26:01.641Z,13.53
2023-04-29T00:28:27.959Z,13.00
2023-04-29T00:30:54.381Z,12.17
2023-04-29T00:33:20.650Z,14.37
2023-04-29T00:35:47.063Z,14.43
2023-04-29T00:38:13.352Z,14.83
2023-04-29T00:40:40.034Z,15.23
2023-04-29T00:43:06.415Z,15.63
2023-04-29T00:45:33.001Z,15.27
2023-04-29T00:47:59.321Z,15.77
2023-04-29T00:50:25.676Z,16.57
2023-04-29T00:52:52.704Z,15.23
2023-04-29T00:55:19.373Z,15.87
2023-04-29T00:57:50.037Z,15.70
2023-04-29T01:00:17.088Z,15.93
2023-04-29T01:02:43.754Z,15.07
2023-04-29T01:05:10.445Z,16.07
2023-04-29T01:07:44.526Z,13.87
2023-04-29T01:10:14.989Z,13.90
2023-04-29T01:12:47.269Z,13.37
2023-04-29T01:15:16.907Z,12.43
2023-04-29T01:17:47.822Z,11.50
2023-04-29T01:20:15.017Z,11.00
2023-04-29T01:22:41.750Z,10.07
2023-04-29T01:25:08.183Z,8.27
2023-04-29T01:27:38.330Z,7.37
2023-04-29T01:30:17.003Z,7.80
2023-04-29T01:32:47.417Z,8.90
2023-04-29T01:35:33.986Z,9.03
2023-04-29T01:38:11.540Z,9.47
2023-04-29T01:40:43.151Z,10.53
2023-04-29T01:43:11.971Z,10.60
2023-04-29T01:45:41.200Z,11.27
2023-04-29T01:48:08.600Z,12.27
2023-04-29T01:50:35.142Z,13.67
2023-04-29T01:53:01.596Z,13.63
2023-04-29T01:55:27.884Z,15.57
2023-04-29T01:57:54.212Z,17.03
2023-04-29T02:00:20.629Z,16.63
2023-04-29T02:02:47.058Z,17.13
2023-04-29T02:05:13.562Z,16.83
2023-04-29T02:07:39.920Z,17.20
2023-04-29T02:10:06.564Z,18.57
2023-04-29T02:12:32.921Z,17.80
2023-04-29T02:15:00.350Z,19.13
2023-04-29T02:17:26.708Z,19.40
2023-04-29T02:19:54.963Z,20.70
2023-04-29T02:22:21.915Z,20.13
2023-04-29T02:24:48.248Z,21.37
2023-04-29T02:27:14.574Z,20.13
2023-04-29T02:29:40.925Z,20.87
2023-04-29T02:32:07.519Z,21.90
2023-04-29T02:34:33.827Z,22.27
2023-04-29T02:37:00.149Z,21.97
2023-04-29T02:39:26.448Z,21.90
2023-04-29T02:41:54.150Z,22.73
2023-04-29T02:44:20.454Z,22.23
2023-04-29T02:46:46.807Z,22.03
2023-04-29T02:49:13.955Z,22.67
2023-04-29T02:51:41.299Z,23.30
2023-04-29T02:54:07.638Z,23.17
2023-04-29T02:56:33.886Z,24.40
2023-04-29T02:59:00.288Z,24.23
2023-04-29T03:01:27.181Z,24.97
2023-04-29T03:03:54.838Z,24.07
2023-04-29T03:06:21.240Z,23.93
2023-04-29T03:08:47.512Z,25.10
2023-04-29T03:11:13.784Z,24.83
2023-04-29T03:13:40.142Z,25.10
2023-04-29T03:16:06.850Z,24.63
2023-04-29T03:18:33.259Z,25.20
2023-04-29T03:20:59.789Z,26.00
2023-04-29T03:23:26.799Z,25.87
2023-04-29T03:25:53.157Z,26.23
2023-04-29T03:28:19.533Z,25.67
2023-04-29T03:30:45.832Z,25.83
2023-04-29T03:33:12.089Z,27.37
2023-04-29T03:35:38.418Z,28.67
2023-04-29T03:38:04.674Z,29.80
2023-04-29T03:40:30.948Z,28.13
2023-04-29T03:42:57.288Z,29.60
2023-04-29T03:45:23.560Z,30.97
2023-04-29T03:47:49.931Z,31.13
2023-04-29T03:50:16.360Z,32.70
2023-04-29T03:52:42.681Z,33.67
2023-04-29T03:55:09.205Z,31.90
2023-04-29T03:57:35.532Z,33.17
2023-04-29T04:00:01.819Z,34.47
2023-04-29T04:02:28.542Z,36.53
2023-04-29T04:04:55.360Z,38.27
2023-04-29T04:07:21.820Z,41.17
2023-04-29T04:09:48.300Z,41.97
2023-04-29T04:12:14.576Z,41.90
2023-04-29T04:14:40.840Z,41.13
2023-04-29T04:17:10.239Z,41.33
2023-04-29T04:19:36.815Z,41.60
2023-04-29T04:22:03.743Z,41.07
2023-04-29T04:24:30.162Z,39.93
2023-04-29T04:26:56.425Z,41.13
2023-04-29T04:29:22.766Z,41.43
2023-04-29T04:31:49.113Z,42.73
2023-04-29T04:34:15.442Z,42.70
2023-04-29T04:36:42.259Z,44.03
2023-04-29T04:39:08.528Z,43.40
2023-04-29T04:41:34.808Z,45.07
2023-04-29T04:44:01.062Z,41.67
2023-04-29T04:46:27.353Z,35.73
2023-04-29T04:48:53.647Z,31.40
2023-04-29T04:51:20.752Z,26.33
2023-04-29T04:53:47.025Z,26.60
2023-04-29T04:56:13.496Z,25.10
2023-04-29T04:58:39.757Z,26.20
2023-04-29T05:01:06.173Z,26.63
2023-04-29T05:03:32.560Z,27.37
2023-04-29T05:05:59.748Z,28.57
2023-04-29T05:08:26.126Z,27.43
2023-04-29T05:10:54.081Z,28.80
2023-04-29T05:13:20.758Z,29.70
2023-04-29T05:15:47.010Z,28.40
2023-04-29T05:18:13.240Z,28.33
2023-04-29T05:20:39.522Z,27.13
2023-04-29T05:23:06.032Z,29.10
2023-04-29T05:25:32.293Z,27.53
2023-04-29T05:27:58.544Z,27.77
2023-04-29T05:30:24.826Z,27.37
2023-04-29T05:32:51.294Z,26.83
2023-04-29T05:35:17.649Z,27.03
2023-04-29T05:37:44.232Z,27.40
2023-04-29T05:40:10.643Z,25.70
2023-04-29T05:42:37.303Z,26.43
2023-04-29T05:45:03.701Z,27.23
2023-04-29T05:47:30.130Z,24.43
2023-04-29T05:49:57.131Z,25.70
2023-04-29T05:52:23.420Z,24.20
2023-04-29T05:54:49.661Z,23.67
2023-04-29T05:57:15.944Z,24.67
2023-04-29T05:59:42.166Z,22.47
2023-04-29T06:02:08.471Z,22.77
2023-04-29T06:04:34.847Z,21.33
2023-04-29T06:07:01.439Z,20.90
2023-04-29T06:09:28.357Z,22.00
2023-04-29T06:11:55.008Z,21.03
2023-04-29T06:14:21.609Z,44.47
2023-04-29T06:16:49.099Z,22.23
2023-04-29T06:19:15.426Z,20.33
2023-04-29T06:21:41.719Z,21.33
2023-04-29T06:24:08.056Z,19.30
2023-04-29T06:26:34.383Z,19.50
2023-04-29T06:29:00.902Z,19.30
2023-04-29T06:31:27.765Z,18.30
2023-04-29T06:33:54.872Z,17.00
2023-04-29T06:36:21.152Z,16.47
2023-04-29T06:38:47.493Z,16.37
2023-04-29T06:41:13.741Z,16.03
2023-04-29T06:43:40.832Z,16.30
2023-04-29T06:46:07.194Z,17.03
2023-04-29T06:48:33.682Z,16.33
2023-04-29T06:51:00.126Z,15.63
2023-04-29T06:53:26.655Z,16.03
2023-04-29T06:55:52.929Z,15.13
2023-04-29T06:58:19.363Z,14.83
2023-04-29T07:00:46.835Z,14.53
2023-04-29T07:03:13.403Z,14.70
2023-04-29T07:05:41.740Z,14.00
2023-04-29T07:08:08.463Z,12.60
2023-04-29T07:10:34.757Z,13.97
2023-04-29T07:13:01.046Z,14.17
2023-04-29T07:15:28.129Z,14.27
2023-04-29T07:17:54.588Z,13.73
2023-04-29T07:20:22.490Z,13.30
2023-04-29T07:22:48.993Z,13.03
2023-04-29T07:25:15.332Z,16.03
2023-04-29T07:27:41.891Z,15.00
2023-04-29T07:30:08.814Z,14.47
2023-04-29T07:32:35.191Z,14.53
2023-04-29T07:35:01.558Z,14.57
2023-04-29T07:37:27.973Z,15.77
2023-04-29T07:39:54.442Z,14.93
2023-04-29T07:42:20.901Z,15.03
2023-04-29T07:44:47.164Z,17.00
2023-04-29T07:47:13.620Z,47.30
2023-04-29T07:49:39.920Z,14.57
2023-04-29T07:52:07.731Z,15.43
2023-04-29T07:54:34.035Z,14.93
2023-04-29T07:57:01.386Z,15.27
2023-04-29T07:59:27.732Z,14.73
2023-04-29T08:01:54.074Z,15.00
2023-04-29T08:04:20.960Z,14.67
2023-04-29T08:06:47.485Z,15.07
2023-04-29T08:09:13.795Z,14.90
2023-04-29T08:11:40.036Z,13.63
2023-04-29T08:14:06.492Z,13.80
2023-04-29T08:16:32.815Z,13.63
2023-04-29T08:18:59.176Z,13.97
2023-04-29T08:21:25.472Z,13.77
2023-04-29T08:23:53.399Z,12.87
2023-04-29T08:26:19.938Z,12.67
2023-04-29T08:28:46.327Z,12.33
2023-04-29T08:31:19.692Z,11.50
2023-04-29T08:33:46.378Z,12.77
2023-04-29T08:36:12.676Z,11.93
2023-04-29T08:38:38.893Z,10.97
2023-04-29T08:41:07.318Z,11.27
2023-04-29T08:43:35.320Z,10.67
2023-04-29T08:46:02.702Z,10.30
2023-04-29T08:48:29.300Z,9.73
2023-04-29T08:50:56.576Z,10.17
2023-04-29T08:53:22.806Z,14.87
2023-04-29T08:55:49.080Z,10.57
2023-04-29T08:58:16.125Z,10.13
2023-04-29T09:00:43.285Z,9.87
2023-04-29T09:03:16.434Z,10.37
2023-04-29T09:05:45.769Z,10.27
2023-04-29T09:08:12.602Z,10.27
2023-04-29T09:10:41.729Z,10.73
2023-04-29T09:13:08.022Z,10.50
2023-04-29T09:15:40.206Z,11.17
2023-04-29T09:18:06.796Z,10.70
2023-04-29T09:20:33.172Z,11.27
2023-04-29T09:23:01.282Z,11.40
2023-04-29T09:25:27.817Z,11.30
2023-04-29T09:27:54.874Z,10.23
2023-04-29T09:30:21.626Z,9.87
2023-04-29T09:33:06.735Z,9.90
2023-04-29T09:35:33.271Z,8.70
2023-04-29T09:38:08.772Z,8.50
2023-04-29T09:40:43.497Z,8.57
2023-04-29T09:43:18.358Z,9.03
2023-04-29T09:45:46.239Z,8.80
2023-04-29T09:48:13.087Z,8.17
2023-04-29T09:50:40.016Z,13.67
2023-04-29T09:53:08.989Z,15.73
2023-04-29T09:55:36.050Z,9.50
2023-04-29T09:58:02.618Z,10.00
2023-04-29T10:00:33.722Z,9.23
2023-04-29T10:03:01.538Z,9.43
2023-04-29T10:05:29.644Z,9.10
2023-04-29T10:07:57.448Z,9.87
2023-04-29T10:10:24.567Z,10.00
2023-04-29T10:12:53.141Z,9.27
2023-04-29T10:15:22.607Z,9.30
2023-04-29T10:17:51.901Z,9.33
2023-04-29T10:20:22.656Z,9.37
2023-04-29T10:22:49.790Z,9.53
2023-04-29T10:25:17.063Z,10.10
2023-04-29T10:27:44.398Z,10.20
2023-04-29T10:30:14.371Z,9.77
2023-04-29T10:32:50.399Z,10.93
2023-04-29T10:35:23.317Z,10.60
2023-04-29T10:37:50.103Z,10.90
2023-04-29T10:40:18.513Z,11.90
2023-04-29T10:42:45.861Z,11.77
2023-04-29T10:45:27.035Z,10.37
2023-04-29T10:48:06.237Z,10.97
2023-04-29T10:50:33.289Z,10.77
2023-04-29T10:53:02.700Z,10.13
2023-04-29T10:55:29.307Z,10.40
2023-04-29T10:57:57.041Z,10.60
2023-04-29T11:00:26.916Z,12.60
2023-04-29T11:02:56.407Z,11.37
2023-04-29T11:05:33.062Z,10.87
2023-04-29T11:08:09.296Z,12.00
2023-04-29T11:10:36.184Z,11.80
2023-04-29T11:13:21.147Z,12.30
2023-04-29T11:15:47.384Z,12.50
2023-04-29T11:18:13.689Z,12.77
2023-04-29T11:21:11.813Z,12.47
2023-04-29T11:23:39.098Z,14.77
2023-04-29T11:26:05.501Z,13.07
2023-04-29T11:28:32.140Z,13.37
2023-04-29T11:30:58.963Z,13.00
2023-04-29T11:33:27.584Z,13.00
2023-04-29T11:35:54.158Z,12.67
2023-04-29T11:38:26.712Z,12.73
2023-04-29T11:40:54.484Z,12.53
2023-04-29T11:43:22.042Z,13.03
2023-04-29T11:45:48.654Z,12.63
2023-04-29T11:48:19.397Z,18.30
2023-04-29T11:50:49.886Z,22.43
2023-04-29T11:53:16.251Z,14.10
2023-04-29T11:55:43.507Z,14.93
2023-04-29T11:58:10.026Z,14.90
2023-04-29T12:00:36.461Z,16.20
2023-04-29T12:03:07.269Z,15.77
2023-04-29T12:05:33.773Z,20.70
2023-04-29T12:08:00.326Z,15.63
2023-04-29T12:10:26.752Z,25.10
2023-04-29T12:12:53.074Z,16.43
2023-04-29T12:15:19.479Z,16.50
2023-04-29T12:17:47.152Z,15.40
2023-04-29T12:20:13.583Z,17.43
2023-04-29T12:22:39.990Z,17.00
2023-04-29T12:25:07.242Z,17.60
2023-04-29T12:27:36.360Z,19.50
2023-04-29T12:30:07.053Z,20.70
2023-04-29T12:32:33.445Z,22.53
2023-04-29T12:35:00.124Z,26.47
2023-04-29T12:37:26.709Z,27.43
2023-04-29T12:39:54.898Z,28.80
2023-04-29T12:42:21.218Z,27.93
2023-04-29T12:44:48.341Z,26.63
2023-04-29T12:47:15.950Z,27.47
2023-04-29T12:49:43.269Z,27.70
2023-04-29T12:52:10.538Z,28.57
2023-04-29T12:54:37.900Z,33.30
2023-04-29T12:57:04.440Z,31.03
2023-04-29T12:59:30.889Z,31.20
2023-04-29T13:01:57.393Z,31.97
2023-04-29T13:04:23.953Z,31.03
2023-04-29T13:06:54.209Z,30.87
2023-04-29T13:09:20.785Z,31.03
2023-04-29T13:11:47.222Z,31.17
2023-04-29T13:14:13.476Z,32.20
2023-04-29T13:16:40.911Z,31.77
2023-04-29T13:19:24.602Z,30.83
2023-04-29T13:21:53.740Z,32.10
2023-04-29T13:24:20.967Z,31.27
2023-04-29T13:26:49.121Z,31.57
2023-04-29T13:29:17.194Z,30.80
2023-04-29T13:31:44.095Z,30.53
2023-04-29T13:34:10.494Z,29.90
2023-04-29T13:36:36.995Z,35.60
2023-04-29T13:39:03.604Z,41.67
2023-04-29T13:41:34.035Z,30.47
2023-04-29T13:44:02.184Z,28.47
2023-04-29T13:46:30.609Z,29.83
2023-04-29T13:49:20.728Z,30.20
2023-04-29T13:57:30.103Z,29.20
2023-04-29T13:59:42.612Z,27.73
2023-04-29T14:02:24.825Z,28.50
2023-04-29T14:04:52.475Z,29.07
2023-04-29T14:07:19.059Z,27.93
2023-04-29T14:09:46.177Z,29.03
2023-04-29T14:12:12.467Z,29.83
2023-04-29T14:14:38.760Z,28.97
2023-04-29T14:17:05.175Z,27.07
2023-04-29T14:19:31.665Z,28.47
2023-04-29T14:21:57.944Z,28.17
2023-04-29T14:24:24.198Z,28.23
2023-04-29T14:26:50.721Z,35.17
2023-04-29T14:29:16.993Z,29.27
2023-04-29T14:31:43.290Z,27.43
2023-04-29T14:34:09.697Z,28.70
2023-04-29T14:36:35.967Z,27.97
2023-04-29T14:39:03.884Z,29.30
2023-04-29T14:41:30.286Z,28.47
2023-04-29T14:43:56.777Z,28.37
2023-04-29T14:46:23.498Z,28.57
2023-04-29T14:48:49.908Z,29.13
2023-04-29T14:51:16.328Z,29.80
2023-04-29T14:53:43.031Z,29.63
2023-04-29T14:56:09.391Z,28.10
2023-04-29T14:58:35.855Z,29.27
2023-04-29T15:01:02.289Z,27.67
2023-04-29T15:03:28.694Z,28.10
2023-04-29T15:05:55.207Z,28.67
2023-04-29T15:08:21.717Z,29.33
2023-04-29T15:10:48.232Z,29.73
2023-04-29T15:13:14.588Z,29.70
2023-04-29T15:15:41.262Z,29.97
2023-04-29T15:18:08.744Z,30.17
2023-04-29T15:20:36.071Z,30.47
2023-04-29T15:23:03.658Z,28.87
2023-04-29T15:25:30.411Z,28.77
2023-04-29T15:27:58.885Z,27.30
2023-04-29T15:30:28.206Z,26.10
2023-04-29T15:32:55.056Z,26.23
2023-04-29T15:35:21.447Z,28.53
2023-04-29T15:37:47.852Z,28.47
2023-04-29T15:40:14.327Z,28.80
2023-04-29T15:42:40.661Z,29.47
2023-04-29T15:45:08.743Z,28.03
2023-04-29T15:47:35.408Z,29.03
2023-04-29T15:50:01.889Z,29.97
2023-04-29T15:52:28.511Z,27.80
2023-04-29T15:54:54.842Z,28.47
2023-04-29T15:57:21.314Z,26.93
2023-04-29T15:59:47.661Z,28.07
2023-04-29T16:02:15.196Z,27.20
2023-04-29T16:04:41.563Z,27.60
2023-04-29T16:07:07.985Z,27.77
2023-04-29T16:09:34.870Z,27.70
2023-04-29T16:12:02.021Z,28.20
2023-04-29T16:14:28.465Z,44.87
2023-04-29T16:16:55.006Z,37.73
2023-04-29T16:19:21.381Z,29.40
2023-04-29T16:21:47.851Z,28.03
2023-04-29T16:24:14.931Z,28.20
2023-04-29T16:26:41.302Z,28.73
2023-04-29T16:29:08.280Z,27.93
2023-04-29T16:31:34.615Z,27.53
2023-04-29T16:34:00.943Z,27.90
2023-04-29T16:36:27.866Z,29.80
2023-04-29T16:38:55.036Z,27.77
2023-04-29T16:41:23.204Z,29.37
2023-04-29T16:43:49.861Z,29.33
2023-04-29T16:46:16.291Z,28.87
2023-04-29T16:48:42.659Z,28.87
2023-04-29T16:51:09.602Z,28.57
2023-04-29T16:53:36.456Z,27.77
2023-04-29T16:56:03.040Z,28.47
2023-04-29T16:58:30.065Z,26.83
2023-04-29T17:00:56.481Z,26.37
2023-04-29T17:03:22.904Z,26.60
2023-04-29T17:05:49.258Z,26.27
2023-04-29T17:08:15.747Z,26.63
2023-04-29T17:10:42.022Z,26.37
2023-04-29T17:13:08.278Z,25.43
2023-04-29T17:15:34.563Z,26.80
2023-04-29T17:18:00.993Z,26.80
2023-04-29T17:20:27.353Z,26.60
2023-04-29T17:22:53.668Z,26.83
2023-04-29T17:25:22.369Z,25.47
2023-04-29T17:27:48.762Z,26.90
2023-04-29T17:30:15.050Z,26.13
2023-04-29T17:32:43.707Z,25.30
2023-04-29T17:35:10.569Z,26.13
2023-04-29T17:37:36.933Z,28.13
2023-04-29T17:40:03.544Z,28.10
2023-04-29T17:42:29.781Z,28.97
2023-04-29T17:44:56.096Z,28.67
2023-04-29T17:47:23.136Z,29.13
2023-04-29T17:49:51.730Z,29.63
2023-04-29T17:52:21.088Z,30.37
2023-04-29T17:54:48.591Z,30.67
2023-04-29T17:57:14.996Z,34.67
2023-04-29T17:59:41.327Z,29.63
2023-04-29T18:02:07.560Z,29.77
2023-04-29T18:04:33.888Z,29.20
2023-04-29T18:07:00.209Z,29.90
2023-04-29T18:09:26.447Z,28.80
2023-04-29T18:11:52.883Z,30.13
2023-04-29T18:14:19.195Z,29.83
2023-04-29T18:16:45.523Z,29.10
2023-04-29T18:19:14.866Z,30.13
2023-04-29T18:21:41.130Z,28.53
2023-04-29T18:24:07.739Z,28.50
2023-04-29T18:26:34.356Z,30.03
2023-04-29T18:29:00.970Z,29.47
2023-04-29T18:31:27.400Z,29.93
2023-04-29T18:33:53.808Z,28.70
2023-04-29T18:36:23.701Z,29.13
2023-04-29T18:38:50.402Z,30.23
2023-04-29T18:41:16.774Z,30.70
2023-04-29T18:43:43.149Z,30.80
2023-04-29T18:46:09.635Z,31.40
2023-04-29T18:48:38.258Z,30.83
2023-04-29T18:51:06.007Z,31.20
2023-04-29T18:53:32.446Z,31.83
2023-04-29T18:55:58.761Z,32.20
2023-04-29T18:58:28.022Z,30.33
2023-04-29T19:00:54.444Z,30.67
2023-04-29T19:03:21.255Z,33.57
2023-04-29T19:05:48.171Z,32.00
2023-04-29T19:08:16.538Z,32.63
2023-04-29T19:10:44.042Z,32.43
2023-04-29T19:13:11.095Z,32.33
2023-04-29T19:15:37.618Z,32.30
2023-04-29T19:18:04.918Z,31.97
2023-04-29T19:20:31.528Z,34.33
2023-04-29T19:22:57.898Z,34.57
2023-04-29T19:25:25.959Z,39.63
2023-04-29T19:27:52.620Z,56.17
2023-04-29T19:30:19.110Z,38.20
2023-04-29T19:32:46.214Z,33.50
2023-04-29T19:35:12.637Z,33.77
2023-04-29T19:37:38.985Z,36.00
2023-04-29T19:40:05.590Z,41.33
2023-04-29T19:42:32.213Z,44.43
2023-04-29T19:44:58.556Z,40.80
2023-04-29T19:47:25.051Z,43.40
2023-04-29T19:49:51.766Z,40.63
2023-04-29T19:52:18.266Z,38.10
2023-04-29T19:54:44.698Z,43.00
2023-04-29T19:57:11.342Z,40.97
2023-04-29T19:59:37.758Z,39.60
2023-04-29T20:02:04.072Z,41.13
2023-04-29T20:04:30.347Z,38.70
2023-04-29T20:06:56.738Z,36.87
2023-04-29T20:09:23.085Z,37.83
2023-04-29T20:11:49.372Z,67.17
2023-04-29T20:14:15.610Z,58.47
2023-04-29T20:16:42.229Z,45.70
2023-04-29T20:19:08.589Z,44.47
2023-04-29T20:21:35.010Z,42.30
2023-04-29T20:24:01.311Z,42.13
2023-04-29T20:26:27.597Z,35.50
2023-04-29T20:28:53.967Z,35.50
2023-04-29T20:31:20.313Z,36.47
2023-04-29T20:33:46.909Z,42.00
2023-04-29T20:36:13.358Z,56.47
2023-04-29T20:38:39.868Z,64.23
2023-04-29T20:41:06.327Z,53.23
2023-04-29T20:43:32.656Z,39.50
2023-04-29T20:46:00.362Z,34.83
2023-04-29T20:48:27.853Z,35.33
2023-04-29T20:50:54.307Z,44.10
2023-04-29T20:53:20.852Z,55.77
2023-04-29T20:55:47.296Z,75.77
2023-04-29T20:58:13.545Z,67.03
2023-04-29T21:00:40.618Z,43.90
2023-04-29T21:03:07.449Z,38.73
2023-04-29T21:05:33.960Z,37.67
2023-04-29T21:08:00.274Z,36.43
2023-04-29T21:10:26.617Z,36.97
2023-04-29T21:12:52.970Z,38.40
2023-04-29T21:15:19.301Z,37.07
2023-04-29T21:17:46.007Z,39.07
2023-04-29T21:20:12.476Z,36.30
2023-04-29T21:22:38.922Z,37.20
2023-04-29T21:25:05.396Z,36.70
2023-04-29T21:27:31.681Z,36.10
2023-04-29T21:29:58.050Z,37.33
2023-04-29T21:32:24.442Z,40.43
2023-04-29T21:34:50.835Z,37.60
2023-04-29T21:37:17.280Z,38.97
2023-04-29T21:39:43.603Z,40.43
2023-04-29T21:42:10.476Z,38.37
2023-04-29T21:44:37.684Z,36.43
2023-04-29T21:47:04.608Z,35.37
2023-04-29T21:49:30.959Z,36.57
2023-04-29T21:51:57.267Z,37.80
2023-04-29T21:54:23.596Z,36.83
2023-04-29T21:56:49.915Z,35.17
2023-04-29T21:59:16.158Z,35.13
2023-04-29T22:01:45.527Z,33.77
2023-04-29T22:04:11.923Z,32.20
2023-04-29T22:06:38.209Z,32.40
2023-04-29T22:09:04.967Z,33.27
2023-04-29T22:11:31.212Z,32.40
2023-04-29T22:13:57.472Z,31.43
2023-04-29T22:16:23.935Z,31.03
2023-04-29T22:18:51.172Z,31.87
2023-04-29T22:21:17.734Z,31.87
2023-04-29T22:23:44.054Z,32.17
2023-04-29T22:26:10.463Z,32.13
2023-04-29T22:28:36.807Z,31.57
2023-04-29T22:31:03.215Z,30.83
2023-04-29T22:33:29.846Z,29.13
2023-04-29T22:35:56.201Z,29.77
2023-04-29T22:38:22.708Z,32.67
2023-04-29T22:40:50.439Z,32.83
2023-04-29T22:43:16.732Z,30.50
2023-04-29T22:45:43.203Z,31.23
2023-04-29T22:48:09.498Z,28.70
2023-04-29T22:50:35.897Z,31.03
2023-04-29T22:53:02.138Z,30.27
2023-04-29T22:55:28.401Z,31.07
2023-04-29T22:57:54.716Z,29.90
2023-04-29T23:00:21.924Z,30.27
2023-04-29T23:02:48.207Z,29.93
2023-04-29T23:05:14.546Z,28.60
2023-04-29T23:07:41.120Z,29.60
2023-04-29T23:10:07.628Z,30.37
2023-04-29T23:12:33.908Z,31.90
2023-04-29T23:15:00.318Z,31.90
2023-04-29T23:17:26.619Z,32.30
2023-04-29T23:19:53.199Z,33.00
2023-04-29T23:22:19.610Z,32.30
2023-04-29T23:24:46.016Z,32.20
2023-04-29T23:27:12.307Z,31.37
2023-04-29T23:29:41.268Z,31.10
2023-04-29T23:32:07.651Z,30.97
2023-04-29T23:34:35.534Z,31.23
2023-04-29T23:37:02.075Z,31.13
2023-04-29T23:39:28.358Z,31.37
2023-04-29T23:41:54.586Z,32.40
2023-04-29T23:44:21.028Z,31.83
2023-04-29T23:46:47.404Z,30.67
2023-04-29T23:49:13.724Z,30.10
2023-04-29T23:51:40.067Z,31.40
2023-04-29T23:54:06.353Z,30.13
2023-04-29T23:56:33.629Z,29.83
2023-04-29T23:58:59.926Z,30.83
